createdAt,value
2023-03-14T00:02:42.104Z,9.28
2023-03-14T00:05:46.305Z,9.22
2023-03-14T00:08:50.530Z,9.16
2023-03-14T00:11:55.055Z,9.10
2023-03-14T00:15:01.125Z,8.99
2023-03-14T00:18:05.237Z,8.87
2023-03-14T00:21:11.500Z,8.82
2023-03-14T00:24:15.519Z,8.77
2023-03-14T00:27:19.537Z,8.70
2023-03-14T00:30:23.525Z,8.69
2023-03-14T00:33:27.509Z,8.71
2023-03-14T00:36:31.580Z,8.70
2023-03-14T00:39:35.606Z,8.68
2023-03-14T00:42:39.612Z,8.66
2023-03-14T00:45:43.612Z,8.61
2023-03-14T00:48:47.861Z,8.59
2023-03-14T00:51:52.699Z,8.57
2023-03-14T00:54:56.704Z,8.52
2023-03-14T00:58:00.687Z,8.47
2023-03-14T01:01:10.954Z,8.45
2023-03-14T01:04:14.997Z,8.44
2023-03-14T01:07:19.018Z,8.44
2023-03-14T01:10:23.512Z,8.46
2023-03-14T01:13:27.452Z,8.48
2023-03-14T01:16:34.972Z,8.49
2023-03-14T01:19:38.993Z,8.50
2023-03-14T01:22:44.612Z,8.50
2023-03-14T01:25:48.557Z,8.48
2023-03-14T01:28:54.560Z,8.47
2023-03-14T01:31:59.135Z,8.45
2023-03-14T01:35:04.218Z,8.40
2023-03-14T01:38:08.297Z,8.36
2023-03-14T01:41:19.406Z,8.30
2023-03-14T01:44:23.464Z,8.24
2023-03-14T01:47:28.026Z,8.21
2023-03-14T01:50:32.769Z,8.17
2023-03-14T01:53:39.260Z,8.13
2023-03-14T01:56:50.371Z,8.13
2023-03-14T02:00:20.609Z,8.13
2023-03-14T02:03:26.848Z,8.13
2023-03-14T02:06:41.539Z,8.14
2023-03-14T02:09:46.224Z,8.12
2023-03-14T02:13:00.614Z,8.09
2023-03-14T02:16:27.654Z,8.05
2023-03-14T02:20:18.674Z,8.01
2023-03-14T02:23:44.964Z,7.97
2023-03-14T02:27:08.030Z,7.93
2023-03-14T02:30:17.772Z,7.88
2023-03-14T02:33:24.132Z,7.84
2023-03-14T02:36:29.856Z,7.78
2023-03-14T02:39:41.491Z,7.72
2023-03-14T02:42:45.944Z,7.65
2023-03-14T02:45:52.329Z,7.57
2023-03-14T02:49:03.978Z,7.51
2023-03-14T02:52:08.732Z,7.49
2023-03-14T02:55:13.089Z,7.49
2023-03-14T02:58:19.976Z,7.46
2023-03-14T03:01:25.218Z,7.42
2023-03-14T03:04:29.390Z,7.40
2023-03-14T03:07:33.609Z,7.36
2023-03-14T03:10:37.651Z,7.33
2023-03-14T03:13:42.472Z,7.28
2023-03-14T03:16:46.855Z,7.25
2023-03-14T03:19:51.003Z,7.21
2023-03-14T03:22:55.157Z,7.17
2023-03-14T03:25:59.137Z,7.14
2023-03-14T03:29:03.953Z,7.12
2023-03-14T03:32:08.409Z,7.11
2023-03-14T03:35:12.623Z,7.12
2023-03-14T03:38:17.865Z,7.17
2023-03-14T03:41:22.504Z,7.18
2023-03-14T03:44:27.337Z,7.16
2023-03-14T03:47:32.437Z,7.15
2023-03-14T03:50:36.476Z,7.12
2023-03-14T03:53:41.491Z,7.11
2023-03-14T03:56:47.696Z,7.09
2023-03-14T03:59:51.715Z,7.06
2023-03-14T04:02:55.761Z,7.03
2023-03-14T04:06:06.015Z,7.03
2023-03-14T04:09:12.674Z,7.04
2023-03-14T04:12:26.377Z,7.05
2023-03-14T04:15:38.835Z,7.05
2023-03-14T04:18:49.604Z,7.05
2023-03-14T04:21:54.644Z,7.06
2023-03-14T04:25:00.544Z,7.06
2023-03-14T04:28:05.065Z,7.03
2023-03-14T04:31:11.734Z,7.01
2023-03-14T04:34:16.701Z,7.00
2023-03-14T04:37:26.600Z,7.00
2023-03-14T04:40:31.123Z,7.00
2023-03-14T04:43:39.501Z,7.00
2023-03-14T04:46:45.603Z,6.99
2023-03-14T04:49:50.490Z,6.96
2023-03-14T04:52:54.560Z,6.94
2023-03-14T04:55:59.088Z,6.97
2023-03-14T04:59:09.345Z,6.99
2023-03-14T05:02:15.003Z,7.03
2023-03-14T05:05:39.296Z,7.04
2023-03-14T05:08:53.350Z,7.05
2023-03-14T05:12:16.100Z,7.04
2023-03-14T05:15:38.524Z,7.01
2023-03-14T05:19:02.584Z,6.98
2023-03-14T05:22:20.879Z,6.94
2023-03-14T05:25:27.659Z,6.96
2023-03-14T05:28:54.283Z,6.98
2023-03-14T05:32:07.101Z,6.99
2023-03-14T05:35:32.483Z,6.99
2023-03-14T05:38:55.712Z,6.98
2023-03-14T05:42:14.682Z,7.02
2023-03-14T05:45:34.547Z,7.06
2023-03-14T05:48:52.801Z,7.07
2023-03-14T05:52:32.328Z,7.06
2023-03-14T05:55:58.267Z,7.08
2023-03-14T05:59:14.909Z,7.08
2023-03-14T06:02:33.224Z,7.07
2023-03-14T06:05:40.658Z,7.08
2023-03-14T06:08:44.673Z,7.11
2023-03-14T06:11:48.957Z,7.20
2023-03-14T06:14:53.208Z,7.31
2023-03-14T06:17:57.603Z,7.45
2023-03-14T06:21:02.064Z,7.59
2023-03-14T06:24:06.699Z,7.72
2023-03-14T06:27:16.290Z,7.88
2023-03-14T06:30:20.781Z,8.02
2023-03-14T06:33:25.289Z,8.14
2023-03-14T06:36:29.654Z,8.23
2023-03-14T06:39:34.369Z,8.34
2023-03-14T06:42:44.201Z,8.45
2023-03-14T06:45:48.413Z,8.57
2023-03-14T06:48:52.736Z,8.66
2023-03-14T06:51:57.379Z,8.75
2023-03-14T06:55:01.825Z,8.84
2023-03-14T06:58:09.030Z,8.93
2023-03-14T07:01:39.048Z,9.04
2023-03-14T07:04:44.829Z,9.17
2023-03-14T07:07:49.202Z,9.33
2023-03-14T07:10:57.639Z,9.49
2023-03-14T07:14:02.154Z,9.65
2023-03-14T07:17:06.300Z,9.79
2023-03-14T07:20:11.440Z,9.93
2023-03-14T07:23:15.523Z,10.04
2023-03-14T07:26:27.525Z,10.15
2023-03-14T07:29:31.851Z,10.25
2023-03-14T07:32:36.408Z,10.36
2023-03-14T07:35:41.053Z,10.48
2023-03-14T07:38:45.966Z,10.62
2023-03-14T07:42:12.185Z,10.78
2023-03-14T07:45:42.386Z,10.94
2023-03-14T07:48:46.947Z,11.07
2023-03-14T07:51:51.368Z,11.21
2023-03-14T07:54:55.389Z,11.34
2023-03-14T07:57:59.511Z,11.49
2023-03-14T08:01:04.647Z,11.63
2023-03-14T08:04:08.695Z,11.76
2023-03-14T08:07:12.782Z,11.87
2023-03-14T08:10:23.466Z,11.99
2023-03-14T08:13:27.453Z,12.13
2023-03-14T08:16:31.487Z,12.22
2023-03-14T08:19:35.797Z,12.33
2023-03-14T08:22:39.892Z,12.43
2023-03-14T08:25:44.415Z,12.54
2023-03-14T08:28:48.496Z,12.63
2023-03-14T08:31:52.548Z,12.71
2023-03-14T08:34:57.004Z,12.79
2023-03-14T08:38:00.974Z,12.87
2023-03-14T08:41:06.214Z,12.94
2023-03-14T08:44:12.656Z,12.98
2023-03-14T08:47:16.804Z,13.03
2023-03-14T08:50:20.944Z,13.08
2023-03-14T08:53:25.305Z,13.12
2023-03-14T08:56:29.320Z,13.14
2023-03-14T08:59:33.211Z,13.16
2023-03-14T09:02:37.359Z,13.21
2023-03-14T09:05:41.428Z,13.27
2023-03-14T09:08:46.204Z,13.35
2023-03-14T09:11:50.271Z,13.44
2023-03-14T09:14:54.750Z,13.52
2023-03-14T09:17:58.970Z,13.58
2023-03-14T09:21:03.283Z,13.62
2023-03-14T09:24:07.644Z,13.65
2023-03-14T09:27:11.638Z,13.70
2023-03-14T09:30:15.886Z,13.77
2023-03-14T09:33:19.997Z,13.88
2023-03-14T09:36:24.189Z,13.98
2023-03-14T09:39:28.212Z,14.09
2023-03-14T09:42:32.731Z,14.18
2023-03-14T09:45:41.567Z,14.30
2023-03-14T09:48:46.802Z,14.42
2023-03-14T09:51:54.197Z,14.55
2023-03-14T09:55:02.920Z,14.69
2023-03-14T09:58:13.173Z,14.82
2023-03-14T10:01:22.036Z,14.95
2023-03-14T10:04:26.796Z,15.06
2023-03-14T10:07:33.547Z,15.14
2023-03-14T10:10:37.936Z,15.22
2023-03-14T10:14:02.953Z,15.27
2023-03-14T10:17:13.113Z,15.37
2023-03-14T10:20:34.178Z,15.44
2023-03-14T10:23:38.861Z,15.51
2023-03-14T10:26:43.789Z,15.58
2023-03-14T10:29:59.565Z,15.66
2023-03-14T10:33:19.376Z,15.78
2023-03-14T10:36:29.263Z,15.93
2023-03-14T10:39:47.045Z,16.07
2023-03-14T10:42:53.122Z,16.13
2023-03-14T10:45:59.905Z,16.14
2023-03-14T10:49:07.824Z,16.19
2023-03-14T10:52:31.588Z,16.22
2023-03-14T10:55:50.576Z,16.22
2023-03-14T10:58:58.626Z,16.20
2023-03-14T11:03:01.280Z,16.17
2023-03-14T11:06:20.535Z,16.15
2023-03-14T11:09:33.802Z,16.19
2023-03-14T11:12:46.806Z,16.24
2023-03-14T11:16:02.712Z,16.30
2023-03-14T11:19:28.594Z,16.37
2023-03-14T11:22:38.492Z,16.39
2023-03-14T11:25:54.789Z,16.34
2023-03-14T11:29:00.136Z,16.24
2023-03-14T11:32:13.573Z,16.11
2023-03-14T11:35:20.928Z,16.02
2023-03-14T11:38:36.980Z,15.98
2023-03-14T11:41:44.255Z,15.91
2023-03-14T11:44:50.294Z,15.82
2023-03-14T11:48:17.623Z,15.73
2023-03-14T11:51:30.388Z,15.65
2023-03-14T11:54:44.043Z,15.56
2023-03-14T11:57:50.932Z,15.51
2023-03-14T12:00:58.474Z,15.49
2023-03-14T12:04:15.100Z,15.52
2023-03-14T12:07:30.667Z,15.57
2023-03-14T12:11:09.352Z,15.66
2023-03-14T12:14:23.285Z,15.77
2023-03-14T12:17:39.925Z,15.90
2023-03-14T12:20:53.947Z,15.97
2023-03-14T12:23:58.976Z,15.96
2023-03-14T12:27:04.934Z,15.95
2023-03-14T12:30:30.799Z,15.91
2023-03-14T12:33:35.434Z,15.80
2023-03-14T12:36:49.782Z,15.67
2023-03-14T12:40:21.421Z,15.52
2023-03-14T12:43:35.889Z,15.40
2023-03-14T12:46:39.919Z,15.30
2023-03-14T12:49:45.601Z,15.21
2023-03-14T12:53:04.685Z,15.12
2023-03-14T12:56:53.814Z,15.02
2023-03-14T13:00:00.806Z,14.89
2023-03-14T13:03:19.985Z,14.77
2023-03-14T13:07:02.912Z,14.68
2023-03-14T13:13:23.051Z,14.39
2023-03-14T13:16:28.838Z,14.27
2023-03-14T13:19:35.827Z,14.16
2023-03-14T13:22:39.973Z,14.05
2023-03-14T13:25:44.208Z,13.94
2023-03-14T13:28:48.222Z,13.81
2023-03-14T13:31:55.436Z,13.65
2023-03-14T13:34:59.730Z,13.52
2023-03-14T13:38:11.464Z,13.40
2023-03-14T13:41:16.264Z,13.28
2023-03-14T13:44:31.293Z,13.21
2023-03-14T13:47:40.780Z,13.11
2023-03-14T13:50:54.130Z,13.00
2023-03-14T13:54:00.140Z,12.89
2023-03-14T13:57:08.187Z,12.79
2023-03-14T14:00:21.171Z,12.68
2023-03-14T14:03:25.738Z,12.57
2023-03-14T14:06:37.635Z,12.49
2023-03-14T14:09:45.044Z,12.46
2023-03-14T14:12:59.417Z,12.44
2023-03-14T14:16:05.011Z,12.39
2023-03-14T14:19:10.084Z,12.35
2023-03-14T14:22:14.741Z,12.33
2023-03-14T14:25:19.308Z,12.31
2023-03-14T14:28:30.434Z,12.26
2023-03-14T14:31:34.535Z,12.22
2023-03-14T14:34:43.715Z,12.18
2023-03-14T14:37:49.040Z,12.13
2023-03-14T14:40:57.353Z,12.10
2023-03-14T14:44:01.688Z,12.10
2023-03-14T14:47:06.096Z,12.11
2023-03-14T14:50:32.247Z,12.09
2023-03-14T14:53:41.821Z,12.06
2023-03-14T14:56:51.745Z,12.03
2023-03-14T14:59:57.314Z,11.99
2023-03-14T15:03:01.922Z,11.95
2023-03-14T15:06:06.569Z,11.90
2023-03-14T15:09:12.512Z,11.86
2023-03-14T15:12:16.429Z,11.82
2023-03-14T15:15:20.914Z,11.80
2023-03-14T15:18:31.003Z,11.79
2023-03-14T15:21:35.222Z,11.80
2023-03-14T15:24:39.246Z,11.79
2023-03-14T15:27:44.077Z,11.79
2023-03-14T15:30:50.466Z,11.76
2023-03-14T15:33:54.576Z,11.69
2023-03-14T15:36:58.586Z,11.62
2023-03-14T15:40:12.946Z,11.53
2023-03-14T15:43:18.501Z,11.51
2023-03-14T15:46:23.124Z,11.53
2023-03-14T15:49:27.114Z,11.54
2023-03-14T15:52:31.076Z,11.54
2023-03-14T15:55:35.075Z,11.53
2023-03-14T15:58:41.441Z,11.51
2023-03-14T16:01:45.367Z,11.49
2023-03-14T16:04:49.429Z,11.45
2023-03-14T16:07:53.605Z,11.44
2023-03-14T16:11:00.367Z,11.43
2023-03-14T16:14:05.266Z,11.42
2023-03-14T16:17:11.997Z,11.37
2023-03-14T16:20:16.145Z,11.36
2023-03-14T16:23:20.626Z,11.33
2023-03-14T16:26:24.539Z,11.30
2023-03-14T16:29:29.896Z,11.27
2023-03-14T16:32:34.070Z,11.24
2023-03-14T16:35:38.641Z,11.22
2023-03-14T16:38:44.717Z,11.20
2023-03-14T16:41:49.425Z,11.20
2023-03-14T16:44:53.283Z,11.20
2023-03-14T16:47:57.272Z,11.21
2023-03-14T16:51:01.468Z,11.21
2023-03-14T16:54:05.580Z,11.20
2023-03-14T16:57:09.723Z,11.19
2023-03-14T17:00:14.845Z,11.17
2023-03-14T17:03:19.512Z,11.14
2023-03-14T17:06:24.555Z,11.11
2023-03-14T17:09:28.753Z,11.10
2023-03-14T17:12:32.768Z,11.12
2023-03-14T17:15:37.253Z,11.14
2023-03-14T17:18:42.226Z,11.17
2023-03-14T17:21:46.238Z,11.19
2023-03-14T17:24:50.184Z,11.20
2023-03-14T17:27:54.179Z,11.20
2023-03-14T17:31:09.002Z,11.18
2023-03-14T17:34:13.060Z,11.14
2023-03-14T17:37:17.079Z,11.10
2023-03-14T17:40:21.076Z,11.07
2023-03-14T17:43:25.109Z,11.04
2023-03-14T17:46:29.146Z,11.02
2023-03-14T17:49:33.346Z,11.04
2023-03-14T17:52:38.046Z,11.05
2023-03-14T17:55:42.288Z,11.06
2023-03-14T17:58:46.324Z,11.08
2023-03-14T18:01:50.472Z,11.10
2023-03-14T18:04:54.761Z,11.11
2023-03-14T18:07:59.001Z,11.11
2023-03-14T18:11:03.082Z,11.09
2023-03-14T18:14:11.726Z,11.08
2023-03-14T18:17:15.841Z,11.05
2023-03-14T18:20:19.863Z,11.03
2023-03-14T18:23:24.180Z,10.99
2023-03-14T18:26:28.359Z,10.98
2023-03-14T18:29:32.420Z,10.99
2023-03-14T18:32:36.596Z,11.00
2023-03-14T18:35:40.887Z,11.01
2023-03-14T18:38:46.746Z,11.02
2023-03-14T18:41:50.855Z,11.04
2023-03-14T18:44:54.852Z,11.03
2023-03-14T18:47:58.867Z,11.01
2023-03-14T18:51:03.895Z,10.98
2023-03-14T18:54:10.570Z,10.94
2023-03-14T18:57:14.988Z,10.90
2023-03-14T19:00:20.293Z,10.86
2023-03-14T19:03:27.545Z,10.84
2023-03-14T19:06:33.146Z,10.81
2023-03-14T19:09:37.221Z,10.79
2023-03-14T19:12:41.299Z,10.75
2023-03-14T19:15:45.356Z,10.71
2023-03-14T19:18:49.350Z,10.64
2023-03-14T19:21:54.309Z,10.57
2023-03-14T19:24:58.420Z,10.51
2023-03-14T19:28:02.435Z,10.43
2023-03-14T19:31:06.455Z,10.36
2023-03-14T19:34:10.412Z,10.30
2023-03-14T19:37:14.379Z,10.26
2023-03-14T19:40:18.403Z,10.26
2023-03-14T19:43:22.409Z,10.23
2023-03-14T19:46:26.494Z,10.21
2023-03-14T19:49:32.085Z,10.18
2023-03-14T19:52:38.229Z,10.14
2023-03-14T19:55:46.671Z,10.09
2023-03-14T19:58:51.205Z,10.02
2023-03-14T20:01:58.301Z,9.97
2023-03-14T20:05:02.390Z,9.91
2023-03-14T20:08:06.354Z,9.87
2023-03-14T20:11:11.056Z,9.83
2023-03-14T20:14:16.390Z,9.83
2023-03-14T20:17:20.421Z,9.82
2023-03-14T20:20:25.140Z,9.81
2023-03-14T20:23:29.054Z,9.79
2023-03-14T20:26:34.834Z,9.76
2023-03-14T20:29:38.830Z,9.70
2023-03-14T20:32:43.271Z,9.66
2023-03-14T20:36:13.518Z,9.60
2023-03-14T20:39:17.615Z,9.53
2023-03-14T20:42:21.609Z,9.47
2023-03-14T20:45:25.654Z,9.44
2023-03-14T20:48:31.169Z,9.41
2023-03-14T20:51:35.798Z,9.41
2023-03-14T20:54:39.736Z,9.42
2023-03-14T20:57:43.640Z,9.42
2023-03-14T21:00:49.510Z,9.38
2023-03-14T21:03:53.436Z,9.37
2023-03-14T21:06:57.772Z,9.34
2023-03-14T21:10:01.947Z,9.30
2023-03-14T21:13:06.008Z,9.26
2023-03-14T21:16:10.261Z,9.24
2023-03-14T21:19:14.360Z,9.24
2023-03-14T21:22:18.742Z,9.24
2023-03-14T21:25:22.908Z,9.22
2023-03-14T21:28:26.904Z,9.23
2023-03-14T21:31:31.792Z,9.21
2023-03-14T21:34:35.727Z,9.18
2023-03-14T21:37:39.781Z,9.13
2023-03-14T21:40:43.945Z,9.09
2023-03-14T21:43:47.977Z,9.07
2023-03-14T21:46:52.269Z,9.07
2023-03-14T21:49:56.313Z,9.08
2023-03-14T21:53:00.331Z,9.09
2023-03-14T21:56:04.652Z,9.10
2023-03-14T21:59:09.514Z,9.11
2023-03-14T22:02:19.130Z,9.12
2023-03-14T22:05:23.356Z,9.12
2023-03-14T22:08:27.756Z,9.12
2023-03-14T22:11:31.666Z,9.15
2023-03-14T22:14:35.585Z,9.20
2023-03-14T22:17:39.825Z,9.26
2023-03-14T22:20:44.889Z,9.30
2023-03-14T22:23:50.010Z,9.35
2023-03-14T22:26:55.283Z,9.39
2023-03-14T22:29:59.262Z,9.41
2023-03-14T22:33:03.847Z,9.42
2023-03-14T22:36:09.092Z,9.43
2023-03-14T22:39:13.036Z,9.45
2023-03-14T22:42:17.653Z,9.47
2023-03-14T22:45:21.609Z,9.52
2023-03-14T22:48:25.594Z,9.57
2023-03-14T22:51:29.629Z,9.60
2023-03-14T22:54:33.647Z,9.62
2023-03-14T22:57:37.709Z,9.64
2023-03-14T23:00:41.861Z,9.63
2023-03-14T23:03:45.765Z,9.63
2023-03-14T23:06:49.806Z,9.65
2023-03-14T23:09:53.704Z,9.69
2023-03-14T23:12:57.857Z,9.74
2023-03-14T23:16:02.632Z,9.80
2023-03-14T23:19:06.475Z,9.85
2023-03-14T23:22:10.505Z,9.88
2023-03-14T23:25:14.421Z,9.87
2023-03-14T23:28:18.370Z,9.87
2023-03-14T23:31:22.972Z,9.86
2023-03-14T23:34:27.024Z,9.84
2023-03-14T23:37:32.097Z,9.83
2023-03-14T23:40:36.071Z,9.83
2023-03-14T23:43:46.986Z,9.86
2023-03-14T23:46:51.656Z,9.87
2023-03-14T23:49:55.567Z,9.85
2023-03-14T23:52:59.677Z,9.82
2023-03-14T23:56:04.461Z,9.79
2023-03-14T23:59:08.434Z,9.76
